sensor_id;sensor_type;location;lat;lon;timestamp;temperature;humidity
14779;DHT22;7481;53.750;10.570;2022-07-24T00:01:17;13.40;99.90
14779;DHT22;7481;53.750;10.570;2022-07-24T00:04:05;13.40;99.90
14779;DHT22;7481;53.750;10.570;2022-07-24T00:06:52;13.40;99.90
14779;DHT22;7481;53.750;10.570;2022-07-24T00:09:39;13.50;99.90
14779;DHT22;7481;53.750;10.570;2022-07-24T00:12:26;13.60;99.90
14779;DHT22;7481;53.750;10.570;2022-07-24T00:15:13;13.60;99.90
14779;DHT22;7481;53.750;10.570;2022-07-24T00:18:00;13.50;99.90
14779;DHT22;7481;53.750;10.570;2022-07-24T00:20:47;13.40;99.90
14779;DHT22;7481;53.750;10.570;2022-07-24T00:23:35;13.40;99.90
14779;DHT22;7481;53.750;10.570;2022-07-24T00:26:22;13.30;99.90
14779;DHT22;7481;53.750;10.570;2022-07-24T00:29:09;13.30;99.90
14779;DHT22;7481;53.750;10.570;2022-07-24T00:31:56;13.20;99.90
14779;DHT22;7481;53.750;10.570;2022-07-24T00:34:43;13.20;99.90
14779;DHT22;7481;53.750;10.570;2022-07-24T00:37:30;13.10;99.90
14779;DHT22;7481;53.750;10.570;2022-07-24T00:40:17;13.20;99.90
14779;DHT22;7481;53.750;10.570;2022-07-24T00:43:04;13.20;99.90
14779;DHT22;7481;53.750;10.570;2022-07-24T00:45:51;13.20;99.90
14779;DHT22;7481;53.750;10.570;2022-07-24T00:48:39;13.10;99.90
14779;DHT22;7481;53.750;10.570;2022-07-24T00:51:26;13.20;99.90
14779;DHT22;7481;53.750;10.570;2022-07-24T00:54:15;13.10;99.90
14779;DHT22;7481;53.750;10.570;2022-07-24T00:57:02;13.10;99.90
14779;DHT22;7481;53.750;10.570;2022-07-24T00:59:51;13.10;99.90
14779;DHT22;7481;53.750;10.570;2022-07-24T01:02:40;13.10;99.90
14779;DHT22;7481;53.750;10.570;2022-07-24T01:05:27;13.10;99.90
14779;DHT22;7481;53.750;10.570;2022-07-24T01:08:14;13.00;99.90
14779;DHT22;7481;53.750;10.570;2022-07-24T01:11:02;13.00;99.90
14779;DHT22;7481;53.750;10.570;2022-07-24T01:13:50;13.00;99.90
14779;DHT22;7481;53.750;10.570;2022-07-24T01:16:37;13.00;99.90
14779;DHT22;7481;53.750;10.570;2022-07-24T01:19:24;13.00;99.90
14779;DHT22;7481;53.750;10.570;2022-07-24T01:22:11;13.00;99.90
14779;DHT22;7481;53.750;10.570;2022-07-24T01:24:58;12.90;99.90
14779;DHT22;7481;53.750;10.570;2022-07-24T01:27:45;12.90;99.90
14779;DHT22;7481;53.750;10.570;2022-07-24T01:30:32;12.90;99.90
14779;DHT22;7481;53.750;10.570;2022-07-24T01:33:20;13.00;99.90
14779;DHT22;7481;53.750;10.570;2022-07-24T01:36:07;12.90;99.90
14779;DHT22;7481;53.750;10.570;2022-07-24T01:38:54;12.80;99.90
14779;DHT22;7481;53.750;10.570;2022-07-24T01:41:41;12.80;99.90
14779;DHT22;7481;53.750;10.570;2022-07-24T01:44:28;12.80;99.90
14779;DHT22;7481;53.750;10.570;2022-07-24T01:47:15;12.80;99.90
14779;DHT22;7481;53.750;10.570;2022-07-24T01:50:03;12.70;99.90
14779;DHT22;7481;53.750;10.570;2022-07-24T01:52:50;12.60;99.90
14779;DHT22;7481;53.750;10.570;2022-07-24T01:55:37;12.60;99.90
14779;DHT22;7481;53.750;10.570;2022-07-24T01:58:24;12.70;99.90
14779;DHT22;7481;53.750;10.570;2022-07-24T02:01:11;12.70;99.90
14779;DHT22;7481;53.750;10.570;2022-07-24T02:03:58;12.80;99.90
14779;DHT22;7481;53.750;10.570;2022-07-24T02:06:45;12.80;99.90
14779;DHT22;7481;53.750;10.570;2022-07-24T02:09:32;12.90;99.90
14779;DHT22;7481;53.750;10.570;2022-07-24T02:12:19;12.90;99.90
14779;DHT22;7481;53.750;10.570;2022-07-24T02:15:06;12.90;99.90
14779;DHT22;7481;53.750;10.570;2022-07-24T02:17:56;12.90;99.90
14779;DHT22;7481;53.750;10.570;2022-07-24T02:20:43;13.00;99.90
14779;DHT22;7481;53.750;10.570;2022-07-24T02:23:30;12.90;99.90
14779;DHT22;7481;53.750;10.570;2022-07-24T02:26:17;12.90;99.90
14779;DHT22;7481;53.750;10.570;2022-07-24T02:29:04;12.90;99.90
14779;DHT22;7481;53.750;10.570;2022-07-24T02:31:51;13.00;99.90
14779;DHT22;7481;53.750;10.570;2022-07-24T02:34:38;13.00;99.90
14779;DHT22;7481;53.750;10.570;2022-07-24T02:37:25;13.00;99.90
14779;DHT22;7481;53.750;10.570;2022-07-24T02:40:13;12.90;99.90
14779;DHT22;7481;53.750;10.570;2022-07-24T02:43:00;12.90;99.90
14779;DHT22;7481;53.750;10.570;2022-07-24T02:45:48;12.80;99.90
14779;DHT22;7481;53.750;10.570;2022-07-24T02:48:39;12.90;99.90
14779;DHT22;7481;53.750;10.570;2022-07-24T02:51:26;12.90;99.90
14779;DHT22;7481;53.750;10.570;2022-07-24T02:54:12;12.90;99.90
14779;DHT22;7481;53.750;10.570;2022-07-24T02:57:00;12.80;99.90
14779;DHT22;7481;53.750;10.570;2022-07-24T02:59:46;12.80;99.90
14779;DHT22;7481;53.750;10.570;2022-07-24T03:02:38;12.70;99.90
14779;DHT22;7481;53.750;10.570;2022-07-24T03:05:25;13.60;99.90
14779;DHT22;7481;53.750;10.570;2022-07-24T03:08:12;12.60;99.90
14779;DHT22;7481;53.750;10.570;2022-07-24T03:10:59;12.60;99.90
14779;DHT22;7481;53.750;10.570;2022-07-24T03:13:46;12.60;99.90
14779;DHT22;7481;53.750;10.570;2022-07-24T03:16:34;12.60;99.90
14779;DHT22;7481;53.750;10.570;2022-07-24T03:19:25;12.60;99.90
14779;DHT22;7481;53.750;10.570;2022-07-24T03:22:11;12.50;99.90
14779;DHT22;7481;53.750;10.570;2022-07-24T03:24:59;12.50;99.90
14779;DHT22;7481;53.750;10.570;2022-07-24T03:27:49;12.50;99.90
14779;DHT22;7481;53.750;10.570;2022-07-24T03:30:36;12.50;99.90
14779;DHT22;7481;53.750;10.570;2022-07-24T03:33:23;12.60;99.90
14779;DHT22;7481;53.750;10.570;2022-07-24T03:36:10;12.60;99.90
14779;DHT22;7481;53.750;10.570;2022-07-24T03:38:57;12.60;99.90
14779;DHT22;7481;53.750;10.570;2022-07-24T03:41:44;12.60;99.90
14779;DHT22;7481;53.750;10.570;2022-07-24T03:44:31;12.60;99.90
14779;DHT22;7481;53.750;10.570;2022-07-24T03:47:17;12.60;99.90
14779;DHT22;7481;53.750;10.570;2022-07-24T03:50:05;12.60;99.90
14779;DHT22;7481;53.750;10.570;2022-07-24T03:52:52;12.70;99.90
14779;DHT22;7481;53.750;10.570;2022-07-24T03:55:39;12.80;99.90
14779;DHT22;7481;53.750;10.570;2022-07-24T03:58:26;12.80;99.90
14779;DHT22;7481;53.750;10.570;2022-07-24T04:01:14;12.90;99.90
14779;DHT22;7481;53.750;10.570;2022-07-24T04:04:02;12.90;99.90
14779;DHT22;7481;53.750;10.570;2022-07-24T04:06:51;13.00;99.90
14779;DHT22;7481;53.750;10.570;2022-07-24T04:09:38;13.10;99.90
14779;DHT22;7481;53.750;10.570;2022-07-24T04:12:25;13.10;99.90
14779;DHT22;7481;53.750;10.570;2022-07-24T04:15:13;13.30;99.90
14779;DHT22;7481;53.750;10.570;2022-07-24T04:18:00;13.40;99.90
14779;DHT22;7481;53.750;10.570;2022-07-24T04:20:48;13.70;99.90
14779;DHT22;7481;53.750;10.570;2022-07-24T04:23:35;13.90;99.90
14779;DHT22;7481;53.750;10.570;2022-07-24T04:26:22;14.10;99.90
14779;DHT22;7481;53.750;10.570;2022-07-24T04:29:09;14.20;99.90
14779;DHT22;7481;53.750;10.570;2022-07-24T04:31:57;14.30;99.90
14779;DHT22;7481;53.750;10.570;2022-07-24T04:34:45;14.30;99.90
14779;DHT22;7481;53.750;10.570;2022-07-24T04:37:32;14.20;99.90
14779;DHT22;7481;53.750;10.570;2022-07-24T04:40:19;14.00;99.90
14779;DHT22;7481;53.750;10.570;2022-07-24T04:43:06;13.90;99.90
14779;DHT22;7481;53.750;10.570;2022-07-24T04:45:57;13.90;99.90
14779;DHT22;7481;53.750;10.570;2022-07-24T04:48:44;13.90;99.90
14779;DHT22;7481;53.750;10.570;2022-07-24T04:51:31;13.80;99.90
14779;DHT22;7481;53.750;10.570;2022-07-24T04:54:18;13.80;99.90
14779;DHT22;7481;53.750;10.570;2022-07-24T04:57:05;13.80;99.90
14779;DHT22;7481;53.750;10.570;2022-07-24T04:59:52;13.80;99.90
14779;DHT22;7481;53.750;10.570;2022-07-24T05:02:39;14.90;99.90
14779;DHT22;7481;53.750;10.570;2022-07-24T05:05:26;13.90;99.90
14779;DHT22;7481;53.750;10.570;2022-07-24T05:08:13;13.90;99.90
14779;DHT22;7481;53.750;10.570;2022-07-24T05:11:00;14.00;99.90
14779;DHT22;7481;53.750;10.570;2022-07-24T05:13:47;14.00;99.90
14779;DHT22;7481;53.750;10.570;2022-07-24T05:16:34;14.00;99.90
14779;DHT22;7481;53.750;10.570;2022-07-24T05:19:21;14.00;99.90
14779;DHT22;7481;53.750;10.570;2022-07-24T05:22:08;14.00;99.90
14779;DHT22;7481;53.750;10.570;2022-07-24T05:24:55;14.40;99.90
14779;DHT22;7481;53.750;10.570;2022-07-24T05:27:42;15.30;99.90
14779;DHT22;7481;53.750;10.570;2022-07-24T05:30:29;16.30;99.90
14779;DHT22;7481;53.750;10.570;2022-07-24T05:33:16;17.30;99.90
14779;DHT22;7481;53.750;10.570;2022-07-24T05:36:04;18.10;99.90
14779;DHT22;7481;53.750;10.570;2022-07-24T05:38:51;18.90;99.90
14779;DHT22;7481;53.750;10.570;2022-07-24T05:41:38;19.20;99.90
14779;DHT22;7481;53.750;10.570;2022-07-24T05:44:25;18.90;99.90
14779;DHT22;7481;53.750;10.570;2022-07-24T05:47:12;18.30;99.90
14779;DHT22;7481;53.750;10.570;2022-07-24T05:49:59;17.70;99.90
14779;DHT22;7481;53.750;10.570;2022-07-24T05:52:46;17.10;99.90
14779;DHT22;7481;53.750;10.570;2022-07-24T05:55:33;16.60;99.90
14779;DHT22;7481;53.750;10.570;2022-07-24T05:58:20;16.30;99.90
14779;DHT22;7481;53.750;10.570;2022-07-24T06:01:07;16.10;99.90
14779;DHT22;7481;53.750;10.570;2022-07-24T06:03:54;16.10;99.90
14779;DHT22;7481;53.750;10.570;2022-07-24T06:06:41;13.70;99.90
14779;DHT22;7481;53.750;10.570;2022-07-24T06:09:28;17.20;99.90
14779;DHT22;7481;53.750;10.570;2022-07-24T06:12:15;18.10;99.90
14779;DHT22;7481;53.750;10.570;2022-07-24T06:15:03;18.40;99.90
14779;DHT22;7481;53.750;10.570;2022-07-24T06:17:50;17.90;99.90
14779;DHT22;7481;53.750;10.570;2022-07-24T06:20:37;17.60;99.90
14779;DHT22;7481;53.750;10.570;2022-07-24T06:23:24;17.60;99.90
14779;DHT22;7481;53.750;10.570;2022-07-24T06:26:11;18.30;99.90
14779;DHT22;7481;53.750;10.570;2022-07-24T06:28:58;19.20;99.90
14779;DHT22;7481;53.750;10.570;2022-07-24T06:31:45;20.30;99.90
14779;DHT22;7481;53.750;10.570;2022-07-24T06:34:32;21.10;99.90
14779;DHT22;7481;53.750;10.570;2022-07-24T06:37:19;21.70;99.90
14779;DHT22;7481;53.750;10.570;2022-07-24T06:40:07;21.90;99.90
14779;DHT22;7481;53.750;10.570;2022-07-24T06:42:54;22.40;99.90
14779;DHT22;7481;53.750;10.570;2022-07-24T06:45:41;22.90;99.90
14779;DHT22;7481;53.750;10.570;2022-07-24T06:48:30;23.10;99.90
14779;DHT22;7481;53.750;10.570;2022-07-24T06:51:17;23.40;99.90
14779;DHT22;7481;53.750;10.570;2022-07-24T06:54:04;24.00;99.90
14779;DHT22;7481;53.750;10.570;2022-07-24T06:56:51;24.60;99.90
14779;DHT22;7481;53.750;10.570;2022-07-24T06:59:38;24.40;99.90
14779;DHT22;7481;53.750;10.570;2022-07-24T07:02:25;24.50;99.90
14779;DHT22;7481;53.750;10.570;2022-07-24T07:05:12;24.90;99.90
14779;DHT22;7481;53.750;10.570;2022-07-24T07:07:59;26.00;99.90
14779;DHT22;7481;53.750;10.570;2022-07-24T07:10:46;24.90;99.90
14779;DHT22;7481;53.750;10.570;2022-07-24T07:13:33;24.90;99.90
14779;DHT22;7481;53.750;10.570;2022-07-24T07:16:20;24.50;99.90
14779;DHT22;7481;53.750;10.570;2022-07-24T07:19:07;25.00;99.90
14779;DHT22;7481;53.750;10.570;2022-07-24T07:21:54;25.60;99.90
14779;DHT22;7481;53.750;10.570;2022-07-24T07:24:41;25.80;99.90
14779;DHT22;7481;53.750;10.570;2022-07-24T07:27:32;26.00;99.90
14779;DHT22;7481;53.750;10.570;2022-07-24T07:30:19;26.10;99.90
14779;DHT22;7481;53.750;10.570;2022-07-24T07:33:06;26.50;99.90
14779;DHT22;7481;53.750;10.570;2022-07-24T07:35:53;26.60;99.90
14779;DHT22;7481;53.750;10.570;2022-07-24T07:38:40;26.80;99.60
14779;DHT22;7481;53.750;10.570;2022-07-24T07:41:27;26.60;99.40
14779;DHT22;7481;53.750;10.570;2022-07-24T07:44:14;26.60;98.60
14779;DHT22;7481;53.750;10.570;2022-07-24T07:47:01;26.50;99.70
14779;DHT22;7481;53.750;10.570;2022-07-24T07:49:48;26.50;99.30
14779;DHT22;7481;53.750;10.570;2022-07-24T07:52:35;26.30;99.00
14779;DHT22;7481;53.750;10.570;2022-07-24T07:55:22;26.40;99.30
14779;DHT22;7481;53.750;10.570;2022-07-24T07:58:09;26.70;99.10
14779;DHT22;7481;53.750;10.570;2022-07-24T08:00:56;26.90;99.20
14779;DHT22;7481;53.750;10.570;2022-07-24T08:03:43;27.10;98.60
14779;DHT22;7481;53.750;10.570;2022-07-24T08:06:30;27.20;98.20
14779;DHT22;7481;53.750;10.570;2022-07-24T08:09:17;26.80;98.40
14779;DHT22;7481;53.750;10.570;2022-07-24T08:12:05;26.40;98.80
14779;DHT22;7481;53.750;10.570;2022-07-24T08:14:52;25.90;99.90
14779;DHT22;7481;53.750;10.570;2022-07-24T08:17:39;25.80;99.90
14779;DHT22;7481;53.750;10.570;2022-07-24T08:20:26;26.00;99.90
14779;DHT22;7481;53.750;10.570;2022-07-24T08:23:13;26.50;99.90
14779;DHT22;7481;53.750;10.570;2022-07-24T08:26:00;26.70;99.30
14779;DHT22;7481;53.750;10.570;2022-07-24T08:28:47;26.70;99.00
14779;DHT22;7481;53.750;10.570;2022-07-24T08:31:34;27.00;98.80
14779;DHT22;7481;53.750;10.570;2022-07-24T08:34:22;27.20;99.40
14779;DHT22;7481;53.750;10.570;2022-07-24T08:37:10;27.60;98.50
14779;DHT22;7481;53.750;10.570;2022-07-24T08:39:56;28.10;98.00
14779;DHT22;7481;53.750;10.570;2022-07-24T08:42:43;28.00;98.00
14779;DHT22;7481;53.750;10.570;2022-07-24T08:45:35;28.40;98.40
14779;DHT22;7481;53.750;10.570;2022-07-24T08:48:23;28.50;97.80
14779;DHT22;7481;53.750;10.570;2022-07-24T08:51:14;28.40;96.30
14779;DHT22;7481;53.750;10.570;2022-07-24T08:54:01;28.10;97.00
14779;DHT22;7481;53.750;10.570;2022-07-24T08:56:49;27.90;97.00
14779;DHT22;7481;53.750;10.570;2022-07-24T08:59:36;27.90;97.70
14779;DHT22;7481;53.750;10.570;2022-07-24T09:02:23;28.00;97.20
14779;DHT22;7481;53.750;10.570;2022-07-24T09:05:10;28.00;95.90
14779;DHT22;7481;53.750;10.570;2022-07-24T09:08:11;27.80;96.40
14779;DHT22;7481;53.750;10.570;2022-07-24T09:11:00;27.60;96.50
14779;DHT22;7481;53.750;10.570;2022-07-24T09:13:53;27.80;96.40
14779;DHT22;7481;53.750;10.570;2022-07-24T09:17:23;27.80;96.70
14779;DHT22;7481;53.750;10.570;2022-07-24T09:20:12;28.10;97.30
14779;DHT22;7481;53.750;10.570;2022-07-24T09:23:00;27.90;97.10
14779;DHT22;7481;53.750;10.570;2022-07-24T09:25:54;28.00;96.60
14779;DHT22;7481;53.750;10.570;2022-07-24T09:28:54;27.80;96.70
14779;DHT22;7481;53.750;10.570;2022-07-24T09:32:01;27.80;96.60
14779;DHT22;7481;53.750;10.570;2022-07-24T09:34:51;27.50;97.90
14779;DHT22;7481;53.750;10.570;2022-07-24T09:37:38;27.40;97.20
14779;DHT22;7481;53.750;10.570;2022-07-24T09:40:36;27.40;97.50
14779;DHT22;7481;53.750;10.570;2022-07-24T09:43:26;27.80;97.30
14779;DHT22;7481;53.750;10.570;2022-07-24T09:46:23;28.00;96.30
14779;DHT22;7481;53.750;10.570;2022-07-24T09:49:18;27.90;96.30
14779;DHT22;7481;53.750;10.570;2022-07-24T09:52:17;28.00;96.20
14779;DHT22;7481;53.750;10.570;2022-07-24T09:55:04;28.20;96.90
14779;DHT22;7481;53.750;10.570;2022-07-24T09:58:16;28.40;95.50
14779;DHT22;7481;53.750;10.570;2022-07-24T10:01:06;29.00;95.70
14779;DHT22;7481;53.750;10.570;2022-07-24T10:03:54;29.10;94.90
14779;DHT22;7481;53.750;10.570;2022-07-24T10:06:44;29.10;95.50
14779;DHT22;7481;53.750;10.570;2022-07-24T10:09:33;29.30;95.40
14779;DHT22;7481;53.750;10.570;2022-07-24T10:12:25;29.40;94.60
14779;DHT22;7481;53.750;10.570;2022-07-24T10:15:12;29.30;94.90
14779;DHT22;7481;53.750;10.570;2022-07-24T10:18:15;29.20;95.00
14779;DHT22;7481;53.750;10.570;2022-07-24T10:21:06;29.20;94.60
14779;DHT22;7481;53.750;10.570;2022-07-24T10:27:03;29.10;95.80
14779;DHT22;7481;53.750;10.570;2022-07-24T10:29:56;29.20;95.10
14779;DHT22;7481;53.750;10.570;2022-07-24T10:32:45;29.40;95.40
14779;DHT22;7481;53.750;10.570;2022-07-24T10:35:35;29.30;94.30
14779;DHT22;7481;53.750;10.570;2022-07-24T10:38:30;29.50;94.40
14779;DHT22;7481;53.750;10.570;2022-07-24T10:41:24;29.30;93.90
14779;DHT22;7481;53.750;10.570;2022-07-24T10:44:14;29.10;95.60
14779;DHT22;7481;53.750;10.570;2022-07-24T10:47:11;28.40;94.80
14779;DHT22;7481;53.750;10.570;2022-07-24T10:50:03;27.70;95.60
14779;DHT22;7481;53.750;10.570;2022-07-24T10:52:53;27.80;96.60
14779;DHT22;7481;53.750;10.570;2022-07-24T10:55:40;28.20;95.70
14779;DHT22;7481;53.750;10.570;2022-07-24T10:58:27;28.50;95.00
14779;DHT22;7481;53.750;10.570;2022-07-24T11:01:34;28.30;95.20
14779;DHT22;7481;53.750;10.570;2022-07-24T11:07:11;27.50;95.80
14779;DHT22;7481;53.750;10.570;2022-07-24T11:10:01;27.50;96.40
14779;DHT22;7481;53.750;10.570;2022-07-24T11:12:48;28.20;96.40
14779;DHT22;7481;53.750;10.570;2022-07-24T11:21:47;28.90;94.90
14779;DHT22;7481;53.750;10.570;2022-07-24T11:24:34;28.80;95.20
14779;DHT22;7481;53.750;10.570;2022-07-24T11:27:21;29.00;96.00
14779;DHT22;7481;53.750;10.570;2022-07-24T11:30:10;29.30;94.90
14779;DHT22;7481;53.750;10.570;2022-07-24T11:32:59;29.50;95.40
14779;DHT22;7481;53.750;10.570;2022-07-24T11:35:46;29.90;95.40
14779;DHT22;7481;53.750;10.570;2022-07-24T11:38:33;29.90;93.90
14779;DHT22;7481;53.750;10.570;2022-07-24T11:41:20;29.90;94.20
14779;DHT22;7481;53.750;10.570;2022-07-24T11:44:07;29.90;94.20
14779;DHT22;7481;53.750;10.570;2022-07-24T11:46:56;29.60;93.90
14779;DHT22;7481;53.750;10.570;2022-07-24T11:49:53;29.60;95.20
14779;DHT22;7481;53.750;10.570;2022-07-24T11:52:41;29.90;95.00
14779;DHT22;7481;53.750;10.570;2022-07-24T11:55:28;29.90;94.60
14779;DHT22;7481;53.750;10.570;2022-07-24T11:58:18;29.70;94.70
14779;DHT22;7481;53.750;10.570;2022-07-24T12:01:24;29.80;94.80
14779;DHT22;7481;53.750;10.570;2022-07-24T12:04:11;30.00;94.10
14779;DHT22;7481;53.750;10.570;2022-07-24T12:06:59;30.40;94.80
14779;DHT22;7481;53.750;10.570;2022-07-24T12:09:58;30.60;94.40
14779;DHT22;7481;53.750;10.570;2022-07-24T12:12:47;30.40;93.40
14779;DHT22;7481;53.750;10.570;2022-07-24T12:15:37;30.20;94.20
14779;DHT22;7481;53.750;10.570;2022-07-24T12:18:24;30.30;94.30
14779;DHT22;7481;53.750;10.570;2022-07-24T12:21:16;30.20;93.00
14779;DHT22;7481;53.750;10.570;2022-07-24T12:24:05;30.10;94.20
14779;DHT22;7481;53.750;10.570;2022-07-24T12:26:58;30.20;93.40
14779;DHT22;7481;53.750;10.570;2022-07-24T12:29:45;29.70;93.20
14779;DHT22;7481;53.750;10.570;2022-07-24T12:32:33;29.60;94.30
14779;DHT22;7481;53.750;10.570;2022-07-24T12:35:20;29.50;93.50
14779;DHT22;7481;53.750;10.570;2022-07-24T12:38:11;29.60;94.10
14779;DHT22;7481;53.750;10.570;2022-07-24T12:41:11;30.00;94.30
14779;DHT22;7481;53.750;10.570;2022-07-24T12:44:04;30.30;93.40
14779;DHT22;7481;53.750;10.570;2022-07-24T12:46:57;30.40;93.00
14779;DHT22;7481;53.750;10.570;2022-07-24T12:49:45;30.80;93.00
14779;DHT22;7481;53.750;10.570;2022-07-24T12:52:33;30.60;93.00
14779;DHT22;7481;53.750;10.570;2022-07-24T12:55:21;30.30;92.90
14779;DHT22;7481;53.750;10.570;2022-07-24T12:58:08;29.70;93.10
14779;DHT22;7481;53.750;10.570;2022-07-24T13:00:58;29.30;93.20
14779;DHT22;7481;53.750;10.570;2022-07-24T13:03:50;29.10;94.00
14779;DHT22;7481;53.750;10.570;2022-07-24T13:06:40;29.00;93.80
14779;DHT22;7481;53.750;10.570;2022-07-24T13:09:28;28.80;93.60
14779;DHT22;7481;53.750;10.570;2022-07-24T13:12:24;28.70;94.30
14779;DHT22;7481;53.750;10.570;2022-07-24T13:15:11;28.60;95.20
14779;DHT22;7481;53.750;10.570;2022-07-24T13:17:58;28.70;94.70
14779;DHT22;7481;53.750;10.570;2022-07-24T13:20:45;29.10;94.70
14779;DHT22;7481;53.750;10.570;2022-07-24T13:23:32;29.60;94.30
14779;DHT22;7481;53.750;10.570;2022-07-24T13:26:20;29.90;93.10
14779;DHT22;7481;53.750;10.570;2022-07-24T13:29:07;30.10;93.70
14779;DHT22;7481;53.750;10.570;2022-07-24T13:31:55;30.30;93.70
14779;DHT22;7481;53.750;10.570;2022-07-24T13:34:42;30.00;93.00
14779;DHT22;7481;53.750;10.570;2022-07-24T13:37:30;29.70;92.40
14779;DHT22;7481;53.750;10.570;2022-07-24T13:40:17;29.80;94.50
14779;DHT22;7481;53.750;10.570;2022-07-24T13:43:04;30.00;93.80
14779;DHT22;7481;53.750;10.570;2022-07-24T13:45:51;30.00;93.00
14779;DHT22;7481;53.750;10.570;2022-07-24T13:48:38;29.90;93.00
14779;DHT22;7481;53.750;10.570;2022-07-24T13:51:26;29.90;93.40
14779;DHT22;7481;53.750;10.570;2022-07-24T13:54:13;30.10;93.70
14779;DHT22;7481;53.750;10.570;2022-07-24T13:57:00;29.90;93.60
14779;DHT22;7481;53.750;10.570;2022-07-24T13:59:50;29.70;93.00
14779;DHT22;7481;53.750;10.570;2022-07-24T14:02:37;29.80;93.30
14779;DHT22;7481;53.750;10.570;2022-07-24T14:05:24;29.80;93.20
14779;DHT22;7481;53.750;10.570;2022-07-24T14:08:12;30.00;93.00
14779;DHT22;7481;53.750;10.570;2022-07-24T14:10:59;30.00;93.60
14779;DHT22;7481;53.750;10.570;2022-07-24T14:13:46;30.20;92.60
14779;DHT22;7481;53.750;10.570;2022-07-24T14:16:33;30.20;91.90
14779;DHT22;7481;53.750;10.570;2022-07-24T14:19:20;30.10;91.80
14779;DHT22;7481;53.750;10.570;2022-07-24T14:22:07;30.00;92.40
14779;DHT22;7481;53.750;10.570;2022-07-24T14:24:54;30.10;92.70
14779;DHT22;7481;53.750;10.570;2022-07-24T14:27:41;30.10;91.70
14779;DHT22;7481;53.750;10.570;2022-07-24T14:30:28;30.00;91.80
14779;DHT22;7481;53.750;10.570;2022-07-24T14:33:15;30.10;92.20
14779;DHT22;7481;53.750;10.570;2022-07-24T14:36:02;30.10;91.90
14779;DHT22;7481;53.750;10.570;2022-07-24T14:38:50;30.00;91.60
14779;DHT22;7481;53.750;10.570;2022-07-24T14:41:37;29.90;92.10
14779;DHT22;7481;53.750;10.570;2022-07-24T14:44:25;30.00;93.20
14779;DHT22;7481;53.750;10.570;2022-07-24T14:47:12;30.00;92.40
14779;DHT22;7481;53.750;10.570;2022-07-24T14:49:59;29.90;92.50
14779;DHT22;7481;53.750;10.570;2022-07-24T14:52:46;29.70;92.00
14779;DHT22;7481;53.750;10.570;2022-07-24T14:55:33;29.60;94.00
14779;DHT22;7481;53.750;10.570;2022-07-24T14:58:20;29.50;92.60
14779;DHT22;7481;53.750;10.570;2022-07-24T15:01:07;29.30;92.40
14779;DHT22;7481;53.750;10.570;2022-07-24T15:03:54;29.20;93.20
14779;DHT22;7481;53.750;10.570;2022-07-24T15:06:41;29.20;92.80
14779;DHT22;7481;53.750;10.570;2022-07-24T15:09:28;29.20;92.20
14779;DHT22;7481;53.750;10.570;2022-07-24T15:12:15;29.30;92.50
14779;DHT22;7481;53.750;10.570;2022-07-24T15:15:02;29.20;93.60
14779;DHT22;7481;53.750;10.570;2022-07-24T15:17:49;29.10;92.90
14779;DHT22;7481;53.750;10.570;2022-07-24T15:20:36;29.20;92.20
14779;DHT22;7481;53.750;10.570;2022-07-24T15:23:23;29.00;92.50
14779;DHT22;7481;53.750;10.570;2022-07-24T15:26:10;29.10;93.30
14779;DHT22;7481;53.750;10.570;2022-07-24T15:28:57;29.10;92.30
14779;DHT22;7481;53.750;10.570;2022-07-24T15:31:45;29.30;92.40
14779;DHT22;7481;53.750;10.570;2022-07-24T15:34:33;29.30;92.40
14779;DHT22;7481;53.750;10.570;2022-07-24T15:37:20;29.40;92.70
14779;DHT22;7481;53.750;10.570;2022-07-24T15:40:08;29.30;92.00
14779;DHT22;7481;53.750;10.570;2022-07-24T15:42:55;29.30;92.30
14779;DHT22;7481;53.750;10.570;2022-07-24T15:45:42;29.30;93.80
14779;DHT22;7481;53.750;10.570;2022-07-24T15:48:29;29.30;92.70
14779;DHT22;7481;53.750;10.570;2022-07-24T15:51:16;29.30;92.70
14779;DHT22;7481;53.750;10.570;2022-07-24T15:54:03;29.40;92.60
14779;DHT22;7481;53.750;10.570;2022-07-24T15:56:51;29.40;92.60
14779;DHT22;7481;53.750;10.570;2022-07-24T15:59:38;29.20;91.70
14779;DHT22;7481;53.750;10.570;2022-07-24T16:02:25;29.20;92.50
14779;DHT22;7481;53.750;10.570;2022-07-24T16:05:12;29.10;92.90
14779;DHT22;7481;53.750;10.570;2022-07-24T16:07:59;28.80;91.90
14779;DHT22;7481;53.750;10.570;2022-07-24T16:10:46;28.80;93.10
14779;DHT22;7481;53.750;10.570;2022-07-24T16:13:33;28.80;92.70
14779;DHT22;7481;53.750;10.570;2022-07-24T16:16:20;28.90;93.00
14779;DHT22;7481;53.750;10.570;2022-07-24T16:19:08;29.00;92.30
14779;DHT22;7481;53.750;10.570;2022-07-24T16:21:55;29.10;92.30
14779;DHT22;7481;53.750;10.570;2022-07-24T16:24:45;29.10;92.40
14779;DHT22;7481;53.750;10.570;2022-07-24T16:27:33;29.70;92.30
14779;DHT22;7481;53.750;10.570;2022-07-24T16:30:20;29.10;92.90
14779;DHT22;7481;53.750;10.570;2022-07-24T16:33:07;29.10;92.60
14779;DHT22;7481;53.750;10.570;2022-07-24T16:36:14;29.00;92.60
14779;DHT22;7481;53.750;10.570;2022-07-24T16:39:01;29.00;92.50
14779;DHT22;7481;53.750;10.570;2022-07-24T16:42:09;29.00;93.40
14779;DHT22;7481;53.750;10.570;2022-07-24T16:44:56;29.10;92.80
14779;DHT22;7481;53.750;10.570;2022-07-24T16:47:43;29.10;92.10
14779;DHT22;7481;53.750;10.570;2022-07-24T16:50:30;28.90;92.00
14779;DHT22;7481;53.750;10.570;2022-07-24T16:53:17;28.90;92.20
14779;DHT22;7481;53.750;10.570;2022-07-24T16:56:10;28.80;92.90
14779;DHT22;7481;53.750;10.570;2022-07-24T16:58:57;28.70;92.60
14779;DHT22;7481;53.750;10.570;2022-07-24T17:01:44;28.60;92.90
14779;DHT22;7481;53.750;10.570;2022-07-24T17:04:32;28.50;93.10
14779;DHT22;7481;53.750;10.570;2022-07-24T17:07:19;28.40;93.10
14779;DHT22;7481;53.750;10.570;2022-07-24T17:10:06;26.90;92.60
14779;DHT22;7481;53.750;10.570;2022-07-24T17:12:53;28.40;93.70
14779;DHT22;7481;53.750;10.570;2022-07-24T17:15:41;27.10;93.10
14779;DHT22;7481;53.750;10.570;2022-07-24T17:18:28;28.40;93.40
14779;DHT22;7481;53.750;10.570;2022-07-24T17:21:15;28.40;93.70
14779;DHT22;7481;53.750;10.570;2022-07-24T17:24:06;28.50;93.20
14779;DHT22;7481;53.750;10.570;2022-07-24T17:26:54;28.50;93.80
14779;DHT22;7481;53.750;10.570;2022-07-24T17:29:42;28.40;93.20
14779;DHT22;7481;53.750;10.570;2022-07-24T17:32:29;28.40;93.30
14779;DHT22;7481;53.750;10.570;2022-07-24T17:35:16;28.30;94.40
14779;DHT22;7481;53.750;10.570;2022-07-24T17:38:03;28.30;93.70
14779;DHT22;7481;53.750;10.570;2022-07-24T17:40:50;28.20;93.70
14779;DHT22;7481;53.750;10.570;2022-07-24T17:43:37;28.20;93.90
14779;DHT22;7481;53.750;10.570;2022-07-24T17:46:24;28.10;94.90
14779;DHT22;7481;53.750;10.570;2022-07-24T17:49:12;28.00;94.60
14779;DHT22;7481;53.750;10.570;2022-07-24T17:52:06;27.90;94.60
14779;DHT22;7481;53.750;10.570;2022-07-24T17:54:53;27.80;94.90